createdAt,value
2019-05-25T00:01:02.610Z,98182.53
2019-05-25T00:03:10.797Z,98181.70
2019-05-25T00:05:18.763Z,98180.30
2019-05-25T00:07:26.760Z,98175.64
2019-05-25T00:09:34.898Z,98181.40
2019-05-25T00:11:42.890Z,98176.33
2019-05-25T00:13:50.789Z,98173.41
2019-05-25T00:15:58.781Z,98174.32
2019-05-25T00:18:06.735Z,98170.16
2019-05-25T00:20:14.755Z,98171.59
2019-05-25T00:22:22.772Z,98164.45
2019-05-25T00:24:30.760Z,98163.62
2019-05-25T00:26:38.856Z,98164.56
2019-05-25T00:28:47.274Z,98156.54
2019-05-25T00:30:55.328Z,98158.25
2019-05-25T00:33:04.397Z,98159.11
2019-05-25T00:35:12.755Z,98155.85
2019-05-25T00:37:20.844Z,98152.19
2019-05-25T00:39:29.344Z,98160.20
2019-05-25T00:41:37.377Z,98157.97
2019-05-25T00:43:45.372Z,98155.28
2019-05-25T00:45:53.561Z,98159.29
2019-05-25T00:48:02.499Z,98156.94
2019-05-25T00:50:10.735Z,98153.31
2019-05-25T00:52:18.638Z,98154.37
2019-05-25T00:54:28.163Z,98160.20
2019-05-25T00:56:36.252Z,98157.86
2019-05-25T00:58:44.224Z,98150.25
2019-05-25T01:00:53.186Z,98156.20
2019-05-25T01:03:01.344Z,98157.09
2019-05-25T01:05:09.675Z,98152.52
2019-05-25T01:07:17.616Z,98150.94
2019-05-25T01:09:25.607Z,98150.25
2019-05-25T01:11:33.500Z,98147.08
2019-05-25T01:13:41.558Z,98154.08
2019-05-25T01:15:49.641Z,98159.80
2019-05-25T01:17:57.633Z,98154.23
2019-05-25T01:20:09.585Z,98153.47
2019-05-25T01:22:17.508Z,98153.74
2019-05-25T01:24:26.366Z,98156.46
2019-05-25T01:26:34.376Z,98158.50
2019-05-25T01:28:42.370Z,98152.68
2019-05-25T01:30:53.429Z,98150.60
2019-05-25T01:33:01.524Z,98153.55
2019-05-25T01:35:10.517Z,98144.81
2019-05-25T01:37:18.507Z,98145.42
2019-05-25T01:39:26.428Z,98147.39
2019-05-25T01:41:34.318Z,98151.63
2019-05-25T01:43:42.573Z,98155.45
2019-05-25T01:45:50.693Z,98155.10
2019-05-25T01:47:58.687Z,98148.22
2019-05-25T01:50:08.634Z,98153.86
2019-05-25T01:52:16.940Z,98149.36
2019-05-25T01:54:25.453Z,98151.51
2019-05-25T01:56:33.406Z,98152.98
2019-05-25T01:58:41.433Z,98150.41
2019-05-25T02:00:49.924Z,98153.36
2019-05-25T02:02:57.814Z,98151.78
2019-05-25T02:05:07.445Z,98155.52
2019-05-25T02:07:15.405Z,98148.59
2019-05-25T02:09:23.363Z,98153.17
2019-05-25T02:11:31.286Z,98147.08
2019-05-25T02:13:39.276Z,98150.25
2019-05-25T02:15:47.707Z,98145.34
2019-05-25T02:17:56.038Z,98149.27
2019-05-25T02:20:07.237Z,98148.59
2019-05-25T02:22:15.132Z,98150.14
2019-05-25T02:24:23.153Z,98148.97
2019-05-25T02:26:31.273Z,98148.25
2019-05-25T02:28:39.326Z,98143.74
2019-05-25T02:30:47.978Z,98151.61
2019-05-25T02:32:56.014Z,98152.24
2019-05-25T02:35:06.071Z,98149.73
2019-05-25T02:37:14.390Z,98151.13
2019-05-25T02:39:22.772Z,98154.03
2019-05-25T02:41:31.888Z,98156.60
2019-05-25T02:43:40.578Z,98150.36
2019-05-25T02:45:48.537Z,98158.51
2019-05-25T02:47:57.038Z,98157.03
2019-05-25T02:50:08.526Z,98165.23
2019-05-25T02:52:16.896Z,98162.72
2019-05-25T02:54:24.893Z,98161.16
2019-05-25T02:56:33.876Z,98160.09
2019-05-25T02:58:41.970Z,98169.64
2019-05-25T03:00:50.228Z,98168.70
2019-05-25T03:02:58.619Z,98173.77
2019-05-25T03:05:14.534Z,98171.09
2019-05-25T03:07:22.931Z,98171.20
2019-05-25T03:09:32.889Z,98176.23
2019-05-25T03:11:41.823Z,98176.07
2019-05-25T03:13:49.788Z,98174.89
2019-05-25T03:15:58.815Z,98176.88
2019-05-25T03:18:06.803Z,98176.58
2019-05-25T03:20:15.435Z,98172.89
2019-05-25T03:22:23.463Z,98178.27
2019-05-25T03:24:31.347Z,98172.67
2019-05-25T03:26:39.238Z,98176.84
2019-05-25T03:28:47.653Z,98175.72
2019-05-25T03:30:55.713Z,98180.53
2019-05-25T03:33:04.273Z,98178.23
2019-05-25T03:35:12.576Z,98179.84
2019-05-25T03:37:20.572Z,98179.34
2019-05-25T03:39:28.566Z,98180.90
2019-05-25T03:41:36.854Z,98180.41
2019-05-25T03:43:44.943Z,98180.41
2019-05-25T03:45:52.941Z,98186.80
2019-05-25T03:48:00.994Z,98193.33
2019-05-25T03:50:09.605Z,98188.73
2019-05-25T03:52:18.081Z,98192.27
2019-05-25T03:54:26.643Z,98188.41
2019-05-25T03:56:35.103Z,98186.59
2019-05-25T03:58:43.136Z,98187.36
2019-05-25T04:00:51.349Z,98187.61
2019-05-25T04:02:59.395Z,98182.48
2019-05-25T04:05:07.624Z,98187.79
2019-05-25T04:07:15.546Z,98191.13
2019-05-25T04:09:23.737Z,98193.70
2019-05-25T04:11:31.727Z,98193.68
2019-05-25T04:13:40.657Z,98194.67
2019-05-25T04:15:49.015Z,98198.35
2019-05-25T04:17:56.913Z,98196.04
2019-05-25T04:20:08.348Z,98199.30
2019-05-25T04:22:16.805Z,98204.09
2019-05-25T04:24:25.104Z,98199.59
2019-05-25T04:26:34.388Z,98200.42
2019-05-25T04:28:42.518Z,98199.67
2019-05-25T04:30:50.899Z,98205.77
2019-05-25T04:32:58.832Z,98202.58
2019-05-25T04:35:07.572Z,98200.92
2019-05-25T04:37:15.573Z,98200.02
2019-05-25T04:39:23.611Z,98198.98
2019-05-25T04:41:31.598Z,98204.38
2019-05-25T04:43:39.585Z,98205.94
2019-05-25T04:45:47.599Z,98205.27
2019-05-25T04:47:55.507Z,98201.59
2019-05-25T04:50:04.436Z,98203.53
2019-05-25T04:52:12.581Z,98209.18
2019-05-25T04:54:20.467Z,98207.04
2019-05-25T04:56:38.802Z,98209.95
2019-05-25T04:58:38.076Z,98209.66
2019-05-25T05:00:46.013Z,98209.92
2019-05-25T05:02:54.164Z,98205.34
2019-05-25T05:05:03.101Z,98213.45
2019-05-25T05:07:11.074Z,98212.39
2019-05-25T05:09:19.134Z,98219.13
2019-05-25T05:11:27.053Z,98211.82
2019-05-25T05:13:35.552Z,98215.23
2019-05-25T05:15:43.946Z,98222.07
2019-05-25T05:17:52.001Z,98224.37
2019-05-25T05:20:00.204Z,98222.08
2019-05-25T05:22:08.225Z,98227.70
2019-05-25T05:24:16.957Z,98230.58
2019-05-25T05:26:25.568Z,98231.41
2019-05-25T05:28:34.057Z,98224.05
2019-05-25T05:30:42.074Z,98224.19
2019-05-25T05:32:50.468Z,98230.78
2019-05-25T05:34:58.696Z,98235.23
2019-05-25T05:37:06.990Z,98230.56
2019-05-25T05:39:16.197Z,98230.83
2019-05-25T05:41:24.615Z,98226.87
2019-05-25T05:43:33.974Z,98233.48
2019-05-25T05:45:43.095Z,98229.48
2019-05-25T05:47:53.024Z,98232.25
2019-05-25T05:50:04.446Z,98232.47
2019-05-25T05:52:14.777Z,98238.22
2019-05-25T05:54:23.888Z,98238.19
2019-05-25T05:56:31.919Z,98233.98
2019-05-25T05:58:40.167Z,98227.98
2019-05-25T06:00:48.754Z,98230.69
2019-05-25T06:02:56.744Z,98233.84
2019-05-25T06:05:05.573Z,98226.39
2019-05-25T06:07:13.572Z,98227.41
2019-05-25T06:09:21.487Z,98227.04
2019-05-25T06:11:29.479Z,98228.44
2019-05-25T06:13:37.369Z,98222.70
2019-05-25T06:15:45.286Z,98226.45
2019-05-25T06:17:53.277Z,98226.58
2019-05-25T06:20:01.400Z,98231.81
2019-05-25T06:22:09.316Z,98229.51
2019-05-25T06:24:17.536Z,98225.58
2019-05-25T06:26:25.595Z,98229.80
2019-05-25T06:28:34.575Z,98235.19
2019-05-25T06:30:43.631Z,98226.64
2019-05-25T06:32:52.112Z,98232.06
2019-05-25T06:35:00.436Z,98222.39
2019-05-25T06:37:08.837Z,98223.02
2019-05-25T06:39:17.317Z,98224.84
2019-05-25T06:41:25.397Z,98227.63
2019-05-25T06:43:33.275Z,98224.73
2019-05-25T06:45:41.913Z,98224.48
2019-05-25T06:47:50.077Z,98228.11
2019-05-25T06:49:58.064Z,98230.20
2019-05-25T06:52:06.804Z,98228.80
2019-05-25T06:54:15.579Z,98230.66
2019-05-25T06:56:25.172Z,98229.86
2019-05-25T06:58:33.169Z,98224.58
2019-05-25T07:00:41.071Z,98227.66
2019-05-25T07:02:49.053Z,98234.30
2019-05-25T07:04:57.026Z,98228.16
2019-05-25T07:07:05.398Z,98229.12
2019-05-25T07:09:13.269Z,98235.11
2019-05-25T07:11:21.549Z,98232.72
2019-05-25T07:13:30.735Z,98238.22
2019-05-25T07:15:38.604Z,98230.02
2019-05-25T07:17:46.663Z,98234.16
2019-05-25T07:19:54.997Z,98238.08
2019-05-25T07:22:03.091Z,98226.01
2019-05-25T07:24:11.446Z,98233.73
2019-05-25T07:26:19.540Z,98228.80
2019-05-25T07:28:27.502Z,98236.16
2019-05-25T07:30:36.061Z,98240.75
2019-05-25T07:32:44.522Z,98241.19
2019-05-25T07:34:52.596Z,98238.77
2019-05-25T07:37:01.540Z,98251.48
2019-05-25T07:39:09.586Z,98243.99
2019-05-25T07:41:17.462Z,98244.55
2019-05-25T07:43:25.407Z,98246.47
2019-05-25T07:45:33.714Z,98246.04
2019-05-25T07:47:41.701Z,98244.67
2019-05-25T07:49:49.666Z,98244.34
2019-05-25T07:51:57.669Z,98253.58
2019-05-25T07:54:06.536Z,98244.35
2019-05-25T07:56:16.402Z,98253.84
2019-05-25T07:58:25.316Z,98243.94
2019-05-25T08:00:33.263Z,98253.58
2019-05-25T08:02:41.243Z,98247.30
2019-05-25T08:04:49.252Z,98248.10
2019-05-25T08:06:57.231Z,98249.64
2019-05-25T08:09:07.727Z,98245.58
2019-05-25T08:11:16.228Z,98250.33
2019-05-25T08:13:24.263Z,98252.06
2019-05-25T08:15:32.286Z,98254.19
2019-05-25T08:17:41.964Z,98254.19
2019-05-25T08:19:49.914Z,98248.86
2019-05-25T08:21:58.372Z,98252.47
2019-05-25T08:24:06.976Z,98242.23
2019-05-25T08:26:15.364Z,98249.33
2019-05-25T08:28:32.074Z,98249.75
2019-05-25T08:30:32.962Z,98257.95
2019-05-25T08:32:41.990Z,98253.02
2019-05-25T08:34:50.446Z,98250.50
2019-05-25T08:36:59.344Z,98245.59
2019-05-25T08:39:08.281Z,98243.59
2019-05-25T08:41:16.441Z,98244.06
2019-05-25T08:43:24.519Z,98240.31
2019-05-25T08:45:32.715Z,98242.08
2019-05-25T08:47:40.823Z,98237.84
2019-05-25T08:49:50.435Z,98238.04
2019-05-25T08:51:58.762Z,98244.06
2019-05-25T08:54:07.646Z,98238.19
2019-05-25T08:56:16.182Z,98245.93
2019-05-25T08:58:24.160Z,98249.33
2019-05-25T09:00:32.140Z,98246.09
2019-05-25T09:02:40.060Z,98243.91
2019-05-25T09:04:48.032Z,98240.63
2019-05-25T09:06:56.019Z,98247.78
2019-05-25T09:09:05.731Z,98239.63
2019-05-25T09:11:13.783Z,98245.89
2019-05-25T09:13:21.671Z,98247.19
2019-05-25T09:15:29.586Z,98251.91
2019-05-25T09:17:37.569Z,98245.05
2019-05-25T09:19:45.515Z,98244.13
2019-05-25T09:22:02.601Z,98240.61
2019-05-25T09:24:03.702Z,98244.50
2019-05-25T09:26:13.617Z,98238.26
2019-05-25T09:28:22.011Z,98223.00
2019-05-25T09:30:30.281Z,98224.72
2019-05-25T09:32:38.462Z,98227.02
2019-05-25T09:34:46.548Z,98224.32
2019-05-25T09:36:54.484Z,98220.05
2019-05-25T09:39:02.400Z,98227.44
2019-05-25T09:41:11.115Z,98232.32
2019-05-25T09:43:19.408Z,98227.58
2019-05-25T09:45:27.287Z,98233.56
2019-05-25T09:47:35.430Z,98232.13
2019-05-25T09:49:43.306Z,98229.89
2019-05-25T09:51:51.320Z,98231.59
2019-05-25T09:53:59.232Z,98226.67
2019-05-25T09:56:07.255Z,98237.77
2019-05-25T09:58:16.198Z,98235.47
2019-05-25T10:00:24.707Z,98230.30
2019-05-25T10:02:32.582Z,98232.60
2019-05-25T10:04:40.657Z,98230.47
2019-05-25T10:06:48.642Z,98230.36
2019-05-25T10:08:56.708Z,98230.64
2019-05-25T10:11:04.748Z,98232.84
2019-05-25T10:13:13.123Z,98233.11
2019-05-25T10:15:21.326Z,98236.30
2019-05-25T10:17:29.282Z,98236.62
2019-05-25T10:19:37.199Z,98228.56
2019-05-25T10:21:46.073Z,98227.23
2019-05-25T10:23:54.164Z,98226.52
2019-05-25T10:26:03.086Z,98226.59
2019-05-25T10:28:11.070Z,98227.00
2019-05-25T10:30:19.486Z,98228.77
2019-05-25T10:32:27.406Z,98223.13
2019-05-25T10:34:35.452Z,98229.05
2019-05-25T10:36:43.484Z,98240.85
2019-05-25T10:38:54.405Z,98229.30
2019-05-25T10:41:02.350Z,98223.68
2019-05-25T10:43:10.555Z,98222.14
2019-05-25T10:45:18.873Z,98221.56
2019-05-25T10:47:26.763Z,98227.27
2019-05-25T10:49:34.649Z,98224.08
2019-05-25T10:51:42.631Z,98224.42
2019-05-25T10:53:50.546Z,98219.16
2019-05-25T10:55:58.473Z,98213.97
2019-05-25T10:58:06.536Z,98211.54
2019-05-25T11:00:17.896Z,98215.30
2019-05-25T11:02:26.025Z,98220.71
2019-05-25T11:04:34.196Z,98215.27
2019-05-25T11:06:42.646Z,98213.80
2019-05-25T11:08:50.779Z,98216.06
2019-05-25T11:10:58.714Z,98208.16
2019-05-25T11:13:06.727Z,98210.67
2019-05-25T11:15:15.436Z,98205.55
2019-05-25T11:17:23.350Z,98205.81
2019-05-25T11:19:31.307Z,98203.84
2019-05-25T11:21:40.330Z,98199.77
2019-05-25T11:23:48.515Z,98211.31
2019-05-25T11:25:56.462Z,98201.98
2019-05-25T11:28:08.270Z,98200.23
2019-05-25T11:30:17.302Z,98191.09
2019-05-25T11:32:25.249Z,98193.59
2019-05-25T11:34:33.187Z,98200.31
2019-05-25T11:36:41.177Z,98187.79
2019-05-25T11:38:49.148Z,98189.66
2019-05-25T11:40:57.097Z,98193.09
2019-05-25T11:43:05.480Z,98186.56
2019-05-25T11:45:14.458Z,98188.69
2019-05-25T11:47:22.328Z,98189.51
2019-05-25T11:49:33.315Z,98191.78
2019-05-25T11:51:41.293Z,98182.82
2019-05-25T11:53:49.491Z,98190.65
2019-05-25T11:55:57.786Z,98186.89
2019-05-25T11:58:06.219Z,98184.63
2019-05-25T12:00:31.283Z,98182.02
2019-05-25T12:02:49.931Z,98174.80
2019-05-25T12:05:10.843Z,98183.76
2019-05-25T12:07:25.187Z,98176.77
2019-05-25T12:09:45.374Z,98173.12
2019-05-25T12:11:56.856Z,98169.44
2019-05-25T12:14:11.310Z,98178.60
2019-05-25T12:16:23.846Z,98178.49
2019-05-25T12:18:36.640Z,98178.68
2019-05-25T12:20:49.347Z,98181.67
2019-05-25T12:23:16.189Z,98168.47
2019-05-25T12:25:32.696Z,98178.73
2019-05-25T12:27:48.887Z,98182.91
2019-05-25T12:30:04.256Z,98179.63
2019-05-25T12:32:17.789Z,98181.71
2019-05-25T12:34:38.792Z,98180.12
2019-05-25T12:37:04.107Z,98171.93
2019-05-25T12:39:19.577Z,98174.77
2019-05-25T12:41:32.401Z,98180.74
2019-05-25T12:43:46.536Z,98165.48
2019-05-25T12:46:13.038Z,98172.23
2019-05-25T12:48:48.183Z,98165.03
2019-05-25T12:51:17.943Z,98158.03
2019-05-25T12:53:49.783Z,98161.44
2019-05-25T12:56:43.865Z,98161.78
2019-05-25T12:59:01.806Z,98161.92
2019-05-25T13:01:18.142Z,98157.19
2019-05-25T13:03:40.740Z,98158.80
2019-05-25T13:06:17.975Z,98148.89
2019-05-25T13:09:10.236Z,98157.18
2019-05-25T13:11:50.802Z,98149.98
2019-05-25T13:14:35.725Z,98152.95
2019-05-25T13:17:01.729Z,98152.62
2019-05-25T13:19:20.891Z,98144.64
2019-05-25T13:21:57.662Z,98140.53
2019-05-25T13:24:15.193Z,98144.19
2019-05-25T13:26:32.562Z,98133.34
2019-05-25T13:28:54.658Z,98143.63
2019-05-25T13:31:30.697Z,98147.02
2019-05-25T13:33:46.695Z,98153.50
2019-05-25T13:35:59.402Z,98148.23
2019-05-25T13:38:12.420Z,98149.42
2019-05-25T13:40:45.405Z,98149.34
2019-05-25T13:43:21.168Z,98142.68
2019-05-25T13:45:35.202Z,98146.38
2019-05-25T13:47:49.656Z,98144.49
2019-05-25T13:50:03.091Z,98141.70
2019-05-25T13:52:40.371Z,98145.62
2019-05-25T13:55:17.146Z,98148.11
2019-05-25T13:57:43.069Z,98142.00
2019-05-25T13:59:57.325Z,98151.17
2019-05-25T14:02:14.637Z,98149.50
2019-05-25T14:04:30.317Z,98155.25
2019-05-25T14:06:44.779Z,98151.34
2019-05-25T14:09:06.802Z,98153.27
2019-05-25T14:11:25.460Z,98152.27
2019-05-25T14:13:59.362Z,98152.78
2019-05-25T14:16:29.379Z,98152.98
2019-05-25T14:18:53.263Z,98144.01
2019-05-25T14:24:10.398Z,98151.14
2019-05-25T14:26:34.267Z,98153.11
2019-05-25T14:28:58.036Z,98162.47
2019-05-25T14:33:52.849Z,98164.92
2019-05-25T14:36:08.333Z,98160.95
2019-05-25T14:38:32.708Z,98166.23
2019-05-25T14:40:52.796Z,98163.55
2019-05-25T14:43:19.645Z,98161.75
2019-05-25T14:45:41.776Z,98164.09
2019-05-25T14:48:01.548Z,98165.30
2019-05-25T14:50:21.529Z,98165.34
2019-05-25T14:52:43.234Z,98160.29
2019-05-25T14:55:01.199Z,98158.84
2019-05-25T14:57:17.287Z,98160.03
2019-05-25T14:59:32.960Z,98157.22
2019-05-25T15:02:01.483Z,98159.80
2019-05-25T15:04:16.417Z,98159.62
2019-05-25T15:06:28.309Z,98155.83
2019-05-25T15:08:45.321Z,98149.13
2019-05-25T15:11:05.638Z,98146.48
2019-05-25T15:13:20.574Z,98160.62
2019-05-25T15:15:36.764Z,98151.89
2019-05-25T15:17:55.513Z,98149.67
2019-05-25T15:20:15.606Z,98144.45
2019-05-25T15:22:28.515Z,98151.10
2019-05-25T15:24:41.434Z,98146.27
2019-05-25T15:26:56.605Z,98150.38
2019-05-25T15:29:42.598Z,98148.09
2019-05-25T15:31:58.130Z,98142.91
2019-05-25T15:34:32.903Z,98137.32
2019-05-25T15:36:52.371Z,98140.81
2019-05-25T15:39:08.672Z,98139.55
2019-05-25T15:41:23.632Z,98141.05
2019-05-25T15:46:08.414Z,98139.64
2019-05-25T15:48:54.104Z,98146.98
2019-05-25T15:54:24.757Z,98153.69
2019-05-25T15:56:46.172Z,98154.91
2019-05-25T15:59:11.986Z,98150.20
2019-05-25T16:01:47.236Z,98152.98
2019-05-25T16:04:23.797Z,98154.12
2019-05-25T16:06:56.275Z,98154.95
2019-05-25T16:15:33.917Z,98153.60
2019-05-25T16:18:07.717Z,98154.63
2019-05-25T16:20:31.798Z,98156.13
2019-05-25T16:22:43.522Z,98154.88
2019-05-25T16:25:29.753Z,98155.39
2019-05-25T16:28:09.294Z,98154.63
2019-05-25T16:30:41.290Z,98148.42
2019-05-25T16:33:12.256Z,98154.62
2019-05-25T16:35:52.206Z,98145.16
2019-05-25T16:38:10.606Z,98155.59
2019-05-25T16:40:28.765Z,98148.09
2019-05-25T16:43:13.119Z,98150.84
2019-05-25T16:45:53.170Z,98152.32
2019-05-25T16:48:39.538Z,98150.22
2019-05-25T16:53:48.562Z,98154.56
2019-05-25T16:56:26.622Z,98151.95
2019-05-25T16:58:53.056Z,98155.53
2019-05-25T17:01:47.546Z,98155.34
2019-05-25T17:04:09.375Z,98149.81
2019-05-25T17:06:25.772Z,98155.18
2019-05-25T17:11:31.649Z,98155.33
2019-05-25T17:16:45.268Z,98162.36
2019-05-25T17:19:30.986Z,98167.88
2019-05-25T17:22:07.968Z,98172.10
2019-05-25T17:24:51.648Z,98169.33
2019-05-25T17:30:33.220Z,98171.61
2019-05-25T17:33:19.895Z,98172.13
2019-05-25T17:35:42.883Z,98172.66
2019-05-25T17:38:21.299Z,98167.02
2019-05-25T17:41:07.490Z,98167.30
2019-05-25T17:43:44.469Z,98161.86
2019-05-25T17:46:28.902Z,98170.71
2019-05-25T17:49:01.603Z,98162.83
2019-05-25T17:51:42.786Z,98169.74
2019-05-25T17:54:32.641Z,98173.27
2019-05-25T17:57:19.594Z,98176.22
2019-05-25T17:59:46.423Z,98182.45
2019-05-25T18:02:32.622Z,98187.49
2019-05-25T18:04:55.675Z,98183.75
2019-05-25T18:07:09.411Z,98180.95
2019-05-25T18:09:47.623Z,98179.42
2019-05-25T18:12:18.458Z,98185.90
2019-05-25T18:15:17.689Z,98184.29
2019-05-25T18:17:55.359Z,98187.60
2019-05-25T18:20:11.756Z,98191.88
2019-05-25T18:22:41.111Z,98196.11
2019-05-25T18:25:01.653Z,98199.20
2019-05-25T18:27:16.217Z,98204.31
2019-05-25T18:29:46.097Z,98203.48
2019-05-25T18:32:25.024Z,98205.47
2019-05-25T18:35:08.075Z,98208.06
2019-05-25T18:37:54.384Z,98208.00
2019-05-25T18:40:25.109Z,98211.50
2019-05-25T18:42:55.785Z,98215.46
2019-05-25T18:45:39.144Z,98219.78
2019-05-25T18:48:28.822Z,98213.78
2019-05-25T18:50:51.498Z,98221.80
2019-05-25T18:55:41.599Z,98225.75
2019-05-25T18:58:05.882Z,98236.51
2019-05-25T19:00:22.590Z,98232.35
2019-05-25T19:02:58.185Z,98243.28
2019-05-25T19:05:47.918Z,98247.22
2019-05-25T19:08:16.398Z,98244.79
2019-05-25T19:10:31.165Z,98248.04
2019-05-25T19:12:46.846Z,98253.91
2019-05-25T19:14:59.859Z,98256.81
2019-05-25T19:17:28.033Z,98259.45
2019-05-25T19:19:41.260Z,98259.43
2019-05-25T19:21:57.760Z,98258.54
2019-05-25T19:24:15.598Z,98267.91
2019-05-25T19:30:14.929Z,98266.25
2019-05-25T19:32:32.545Z,98273.90
2019-05-25T19:34:59.502Z,98268.41
2019-05-25T19:37:19.450Z,98270.06
2019-05-25T19:39:33.620Z,98273.58
2019-05-25T19:41:50.956Z,98271.08
2019-05-25T19:44:16.961Z,98276.48
2019-05-25T19:46:29.574Z,98275.42
2019-05-25T19:48:45.356Z,98282.02
2019-05-25T19:51:01.327Z,98275.32
2019-05-25T19:53:17.340Z,98279.46
2019-05-25T19:55:33.630Z,98283.23
2019-05-25T19:57:46.550Z,98278.79
2019-05-25T20:00:03.774Z,98285.87
2019-05-25T20:02:19.754Z,98286.36
2019-05-25T20:04:34.308Z,98290.50
2019-05-25T20:06:50.831Z,98286.77
2019-05-25T20:09:13.759Z,98287.62
2019-05-25T20:11:26.993Z,98296.81
2019-05-25T20:13:44.412Z,98295.45
2019-05-25T20:16:01.316Z,98292.88
2019-05-25T20:18:20.787Z,98295.23
2019-05-25T20:20:48.322Z,98292.79
2019-05-25T20:23:39.569Z,98297.01
2019-05-25T20:25:51.466Z,98298.09
2019-05-25T20:28:05.301Z,98298.48
2019-05-25T20:30:20.360Z,98302.94
2019-05-25T20:32:33.194Z,98303.19
2019-05-25T20:34:47.633Z,98300.59
2019-05-25T20:37:04.237Z,98311.16
2019-05-25T20:39:21.143Z,98314.56
2019-05-25T20:41:37.956Z,98312.70
2019-05-25T20:43:59.694Z,98310.95
2019-05-25T20:46:16.392Z,98309.19
2019-05-25T20:54:11.008Z,98318.42
2019-05-25T20:56:27.723Z,98318.95
2019-05-25T20:58:45.139Z,98321.65
2019-05-25T21:00:58.676Z,98319.30
2019-05-25T21:03:14.763Z,98319.55
2019-05-25T21:05:48.461Z,98327.48
2019-05-25T21:07:52.676Z,98327.72
2019-05-25T21:10:12.765Z,98329.58
2019-05-25T21:15:20.785Z,98330.63
2019-05-25T21:17:33.803Z,98334.72
2019-05-25T21:19:49.872Z,98337.98
2019-05-25T21:22:05.890Z,98337.84
2019-05-25T21:24:19.423Z,98336.22
2019-05-25T21:26:33.966Z,98335.36
2019-05-25T21:28:46.071Z,98331.95
2019-05-25T21:31:02.157Z,98336.42
2019-05-25T21:33:25.730Z,98333.24
2019-05-25T21:35:37.626Z,98334.73
2019-05-25T21:37:54.530Z,98338.48
2019-05-25T21:40:14.206Z,98338.68
2019-05-25T21:42:33.370Z,98345.23
2019-05-25T21:44:55.190Z,98343.72
2019-05-25T21:47:15.788Z,98348.83
2019-05-25T21:49:32.082Z,98347.77
2019-05-25T21:51:46.851Z,98345.88
2019-05-25T21:54:02.428Z,98347.39
2019-05-25T21:56:26.095Z,98347.81
2019-05-25T21:59:02.542Z,98348.83
2019-05-25T22:01:27.457Z,98354.05
2019-05-25T22:03:44.060Z,98346.97
2019-05-25T22:06:01.790Z,98346.93
2019-05-25T22:08:13.584Z,98342.46
2019-05-25T22:10:31.308Z,98341.28
2019-05-25T22:12:47.813Z,98344.08
2019-05-25T22:14:59.191Z,98345.55
2019-05-25T22:17:46.385Z,98341.11
2019-05-25T22:20:08.653Z,98342.97
2019-05-25T22:22:24.021Z,98349.36
2019-05-25T22:24:40.633Z,98347.56
2019-05-25T22:26:55.532Z,98346.68
2019-05-25T22:29:05.341Z,98355.29
2019-05-25T22:31:34.224Z,98356.39
2019-05-25T22:34:01.885Z,98358.69
2019-05-25T22:36:14.393Z,98360.64
2019-05-25T22:38:31.766Z,98357.87
2019-05-25T22:40:46.483Z,98367.68
2019-05-25T22:43:02.460Z,98359.28
2019-05-25T22:45:15.181Z,98359.14
2019-05-25T22:47:33.107Z,98356.23
2019-05-25T22:49:46.024Z,98354.66
2019-05-25T22:52:12.050Z,98356.50
2019-05-25T22:54:27.319Z,98349.77
2019-05-25T22:56:42.082Z,98356.61
2019-05-25T22:58:56.635Z,98353.48
2019-05-25T23:01:11.301Z,98345.47
2019-05-25T23:03:26.226Z,98342.99
2019-05-25T23:05:44.710Z,98349.55
2019-05-25T23:08:03.763Z,98349.48
2019-05-25T23:10:30.099Z,98352.95
2019-05-25T23:12:43.225Z,98360.60
2019-05-25T23:14:55.420Z,98359.80
2019-05-25T23:17:12.333Z,98363.05
2019-05-25T23:19:23.811Z,98367.94
2019-05-25T23:21:40.826Z,98366.17
2019-05-25T23:24:07.468Z,98365.52
2019-05-25T23:26:21.099Z,98357.25
2019-05-25T23:28:39.645Z,98362.02
2019-05-25T23:31:22.158Z,98360.08
2019-05-25T23:34:03.234Z,98363.27
2019-05-25T23:36:22.849Z,98368.00
2019-05-25T23:39:04.161Z,98362.20
2019-05-25T23:41:26.937Z,98360.61
2019-05-25T23:44:01.259Z,98367.62
2019-05-25T23:46:43.773Z,98363.27
2019-05-25T23:49:08.663Z,98365.74
2019-05-25T23:51:24.856Z,98370.88
2019-05-25T23:53:39.924Z,98369.98
2019-05-25T23:56:16.505Z,98370.78
2019-05-25T23:58:41.085Z,98368.94
